sensor_id;sensor_type;location;lat;lon;timestamp;pressure;altitude;pressure_sealevel;temperature;humidity
21956;BME280;11142;49.930;8.606;2023-03-13T00:02:04;99436.63;;;10.77;100.00
21956;BME280;11142;49.930;8.606;2023-03-13T00:04:32;99433.56;;;10.72;100.00
21956;BME280;11142;49.930;8.606;2023-03-13T00:07:00;99424.47;;;10.77;100.00
21956;BME280;11142;49.930;8.606;2023-03-13T00:09:29;99416.69;;;10.77;100.00
21956;BME280;11142;49.930;8.606;2023-03-13T00:11:58;99410.19;;;10.72;100.00
21956;BME280;11142;49.930;8.606;2023-03-13T00:14:26;99401.72;;;10.81;100.00
21956;BME280;11142;49.930;8.606;2023-03-13T00:16:53;99402.75;;;10.78;100.00
21956;BME280;11142;49.930;8.606;2023-03-13T00:19:22;99398.53;;;10.77;100.00
21956;BME280;11142;49.930;8.606;2023-03-13T00:21:50;99389.22;;;10.86;100.00
21956;BME280;11142;49.930;8.606;2023-03-13T00:24:18;99389.31;;;10.73;100.00
21956;BME280;11142;49.930;8.606;2023-03-13T00:26:47;99384.94;;;10.74;100.00
21956;BME280;11142;49.930;8.606;2023-03-13T00:29:15;99384.47;;;10.80;100.00
21956;BME280;11142;49.930;8.606;2023-03-13T00:31:43;99385.19;;;10.82;100.00
21956;BME280;11142;49.930;8.606;2023-03-13T00:34:12;99374.47;;;10.86;100.00
21956;BME280;11142;49.930;8.606;2023-03-13T00:36:40;99379.19;;;10.92;100.00
21956;BME280;11142;49.930;8.606;2023-03-13T00:39:08;99370.69;;;10.90;100.00
21956;BME280;11142;49.930;8.606;2023-03-13T00:41:36;99365.63;;;11.00;100.00
21956;BME280;11142;49.930;8.606;2023-03-13T00:44:05;99359.13;;;11.05;100.00
21956;BME280;11142;49.930;8.606;2023-03-13T00:46:33;99360.44;;;11.11;100.00
21956;BME280;11142;49.930;8.606;2023-03-13T00:49:02;99351.22;;;11.07;100.00
21956;BME280;11142;49.930;8.606;2023-03-13T00:51:32;99360.44;;;11.00;100.00
21956;BME280;11142;49.930;8.606;2023-03-13T00:54:00;99359.00;;;11.07;100.00
21956;BME280;11142;49.930;8.606;2023-03-13T00:56:29;99343.31;;;11.08;100.00
21956;BME280;11142;49.930;8.606;2023-03-13T00:58:58;99345.19;;;11.17;100.00
21956;BME280;11142;49.930;8.606;2023-03-13T01:01:28;99333.63;;;11.22;100.00
21956;BME280;11142;49.930;8.606;2023-03-13T01:03:59;99326.06;;;11.30;100.00
21956;BME280;11142;49.930;8.606;2023-03-13T01:06:29;99324.78;;;11.35;100.00
21956;BME280;11142;49.930;8.606;2023-03-13T01:08:58;99312.13;;;11.31;100.00
21956;BME280;11142;49.930;8.606;2023-03-13T01:11:26;99310.63;;;11.28;100.00
21956;BME280;11142;49.930;8.606;2023-03-13T01:13:55;99302.94;;;11.27;100.00
21956;BME280;11142;49.930;8.606;2023-03-13T01:16:25;99297.50;;;11.30;100.00
21956;BME280;11142;49.930;8.606;2023-03-13T01:18:57;99289.66;;;11.52;100.00
21956;BME280;11142;49.930;8.606;2023-03-13T01:21:26;99293.31;;;11.49;100.00
21956;BME280;11142;49.930;8.606;2023-03-13T01:23:54;99292.34;;;11.61;100.00
21956;BME280;11142;49.930;8.606;2023-03-13T01:26:23;99273.69;;;11.56;100.00
21956;BME280;11142;49.930;8.606;2023-03-13T01:28:52;99272.03;;;11.55;100.00
21956;BME280;11142;49.930;8.606;2023-03-13T01:31:22;99261.22;;;11.39;100.00
21956;BME280;11142;49.930;8.606;2023-03-13T01:33:52;99271.16;;;11.34;100.00
21956;BME280;11142;49.930;8.606;2023-03-13T01:36:22;99259.09;;;11.44;100.00
21956;BME280;11142;49.930;8.606;2023-03-13T01:38:51;99265.09;;;11.45;100.00
21956;BME280;11142;49.930;8.606;2023-03-13T01:41:20;99268.53;;;11.45;100.00
21956;BME280;11142;49.930;8.606;2023-03-13T01:43:48;99261.22;;;11.39;100.00
21956;BME280;11142;49.930;8.606;2023-03-13T01:46:19;99259.78;;;11.46;100.00
21956;BME280;11142;49.930;8.606;2023-03-13T01:49:11;99255.03;;;11.51;100.00
21956;BME280;11142;49.930;8.606;2023-03-13T01:52:12;99248.28;;;11.60;100.00
21956;BME280;11142;49.930;8.606;2023-03-13T01:55:01;99239.03;;;11.67;100.00
21956;BME280;11142;49.930;8.606;2023-03-13T01:57:31;99236.44;;;11.67;100.00
21956;BME280;11142;49.930;8.606;2023-03-13T02:00:03;99222.03;;;11.74;100.00
21956;BME280;11142;49.930;8.606;2023-03-13T02:02:45;99219.63;;;11.82;100.00
21956;BME280;11142;49.930;8.606;2023-03-13T02:05:13;99222.03;;;11.74;100.00
21956;BME280;11142;49.930;8.606;2023-03-13T02:07:49;99212.09;;;11.68;100.00
21956;BME280;11142;49.930;8.606;2023-03-13T02:10:20;99209.16;;;11.73;100.00
21956;BME280;11142;49.930;8.606;2023-03-13T02:12:49;99201.03;;;11.66;100.00
21956;BME280;11142;49.930;8.606;2023-03-13T02:15:20;99201.03;;;11.66;100.00
21956;BME280;11142;49.930;8.606;2023-03-13T02:17:50;99203.97;;;11.61;100.00
21956;BME280;11142;49.930;8.606;2023-03-13T02:20:19;99200.16;;;11.45;100.00
21956;BME280;11142;49.930;8.606;2023-03-13T02:22:52;99194.31;;;11.00;100.00
21956;BME280;11142;49.930;8.606;2023-03-13T02:25:30;99177.34;;;10.62;100.00
21956;BME280;11142;49.930;8.606;2023-03-13T02:28:00;99176.09;;;10.46;100.00
21956;BME280;11142;49.930;8.606;2023-03-13T02:30:32;99175.25;;;10.34;100.00
21956;BME280;11142;49.930;8.606;2023-03-13T02:33:01;99172.19;;;10.29;100.00
21956;BME280;11142;49.930;8.606;2023-03-13T02:35:30;99166.66;;;10.23;100.00
21956;BME280;11142;49.930;8.606;2023-03-13T02:38:01;99162.06;;;10.15;100.00
21956;BME280;11142;49.930;8.606;2023-03-13T02:40:34;99157.59;;;10.17;100.00
21956;BME280;11142;49.930;8.606;2023-03-13T02:43:04;99151.69;;;10.26;100.00
21956;BME280;11142;49.930;8.606;2023-03-13T02:45:34;99158.66;;;10.26;100.00
21956;BME280;11142;49.930;8.606;2023-03-13T02:48:03;99154.16;;;10.17;100.00
21956;BME280;11142;49.930;8.606;2023-03-13T02:50:31;99141.44;;;10.13;100.00
21956;BME280;11142;49.930;8.606;2023-03-13T02:53:04;99133.88;;;10.10;100.00
21956;BME280;11142;49.930;8.606;2023-03-13T02:55:35;99119.03;;;10.01;100.00
21956;BME280;11142;49.930;8.606;2023-03-13T02:58:09;99119.38;;;9.97;100.00
21956;BME280;11142;49.930;8.606;2023-03-13T03:00:37;99104.06;;;9.94;100.00
21956;BME280;11142;49.930;8.606;2023-03-13T03:03:05;99099.56;;;9.96;100.00
21956;BME280;11142;49.930;8.606;2023-03-13T03:05:35;99095.94;;;9.98;100.00
21956;BME280;11142;49.930;8.606;2023-03-13T03:08:03;99095.13;;;9.98;100.00
21956;BME280;11142;49.930;8.606;2023-03-13T03:10:31;99084.84;;;9.96;100.00
21956;BME280;11142;49.930;8.606;2023-03-13T03:13:04;99080.88;;;9.92;100.00
21956;BME280;11142;49.930;8.606;2023-03-13T03:15:31;99080.03;;;9.92;100.00
21956;BME280;11142;49.930;8.606;2023-03-13T03:17:59;99072.75;;;9.86;100.00
21956;BME280;11142;49.930;8.606;2023-03-13T03:20:28;99064.59;;;9.79;100.00
21956;BME280;11142;49.930;8.606;2023-03-13T03:22:55;99065.53;;;9.78;100.00
21956;BME280;11142;49.930;8.606;2023-03-13T03:25:25;99068.25;;;9.88;100.00
21956;BME280;11142;49.930;8.606;2023-03-13T03:27:53;99068.94;;;9.90;100.00
21956;BME280;11142;49.930;8.606;2023-03-13T03:30:23;99076.72;;;9.90;100.00
21956;BME280;11142;49.930;8.606;2023-03-13T03:32:51;99073.31;;;10.00;100.00
21956;BME280;11142;49.930;8.606;2023-03-13T03:35:20;99071.66;;;9.99;100.00
21956;BME280;11142;49.930;8.606;2023-03-13T03:37:48;99082.50;;;9.93;100.00
21956;BME280;11142;49.930;8.606;2023-03-13T03:40:17;99076.03;;;9.88;100.00
21956;BME280;11142;49.930;8.606;2023-03-13T03:42:47;99077.44;;;9.92;100.00
21956;BME280;11142;49.930;8.606;2023-03-13T03:45:15;99066.34;;;9.90;100.00
21956;BME280;11142;49.930;8.606;2023-03-13T03:47:44;99069.31;;;9.85;100.00
21956;BME280;11142;49.930;8.606;2023-03-13T03:50:13;99069.31;;;9.85;100.00
21956;BME280;11142;49.930;8.606;2023-03-13T03:52:51;99063.16;;;9.86;100.00
21956;BME280;11142;49.930;8.606;2023-03-13T03:55:21;99071.31;;;9.93;100.00
21956;BME280;11142;49.930;8.606;2023-03-13T03:57:49;99052.94;;;9.85;100.00
21956;BME280;11142;49.930;8.606;2023-03-13T04:00:31;99053.28;;;9.91;100.00
21956;BME280;11142;49.930;8.606;2023-03-13T04:03:01;99031.88;;;9.89;100.00
21956;BME280;11142;49.930;8.606;2023-03-13T04:05:29;99033.63;;;9.78;100.00
21956;BME280;11142;49.930;8.606;2023-03-13T04:07:57;99030.94;;;9.79;100.00
21956;BME280;11142;49.930;8.606;2023-03-13T04:10:25;99026.06;;;9.97;100.00
21956;BME280;11142;49.930;8.606;2023-03-13T04:12:54;99023.03;;;9.92;100.00
21956;BME280;11142;49.930;8.606;2023-03-13T04:15:22;99025.13;;;9.98;100.00
21956;BME280;11142;49.930;8.606;2023-03-13T04:17:50;99026.75;;;10.32;100.00
21956;BME280;11142;49.930;8.606;2023-03-13T04:20:22;99027.25;;;10.26;100.00
21956;BME280;11142;49.930;8.606;2023-03-13T04:22:50;99020.06;;;10.19;100.00
21956;BME280;11142;49.930;8.606;2023-03-13T04:25:18;99026.41;;;10.26;100.00
21956;BME280;11142;49.930;8.606;2023-03-13T04:27:49;99015.59;;;10.21;100.00
21956;BME280;11142;49.930;8.606;2023-03-13T04:30:20;99023.00;;;10.25;100.00
21956;BME280;11142;49.930;8.606;2023-03-13T04:33:26;99021.91;;;10.28;100.00
21956;BME280;11142;49.930;8.606;2023-03-13T04:36:22;99024.50;;;10.28;100.00
21956;BME280;11142;49.930;8.606;2023-03-13T04:39:11;99016.97;;;10.25;100.00
21956;BME280;11142;49.930;8.606;2023-03-13T04:42:06;99007.56;;;10.24;100.00
21956;BME280;11142;49.930;8.606;2023-03-13T04:44:46;99003.44;;;10.21;100.00
21956;BME280;11142;49.930;8.606;2023-03-13T04:47:23;98996.00;;;10.28;100.00
21956;BME280;11142;49.930;8.606;2023-03-13T04:50:09;98984.81;;;10.27;100.00
21956;BME280;11142;49.930;8.606;2023-03-13T04:53:02;98986.00;;;10.23;100.00
21956;BME280;11142;49.930;8.606;2023-03-13T04:56:00;98960.53;;;10.28;100.00
21956;BME280;11142;49.930;8.606;2023-03-13T04:58:53;98973.13;;;10.33;100.00
21956;BME280;11142;49.930;8.606;2023-03-13T05:01:48;98972.97;;;10.45;100.00
21956;BME280;11142;49.930;8.606;2023-03-13T05:04:33;98971.78;;;10.49;100.00
21956;BME280;11142;49.930;8.606;2023-03-13T05:07:04;98971.28;;;10.55;100.00
21956;BME280;11142;49.930;8.606;2023-03-13T05:09:49;98975.22;;;10.71;100.00
21956;BME280;11142;49.930;8.606;2023-03-13T05:12:17;98956.84;;;10.62;100.00
21956;BME280;11142;49.930;8.606;2023-03-13T05:15:00;98964.13;;;10.48;100.00
21956;BME280;11142;49.930;8.606;2023-03-13T05:17:40;98966.75;;;10.69;100.00
21956;BME280;11142;49.930;8.606;2023-03-13T05:20:14;98962.16;;;10.82;100.00
21956;BME280;11142;49.930;8.606;2023-03-13T05:22:50;98961.59;;;10.78;100.00
21956;BME280;11142;49.930;8.606;2023-03-13T05:25:52;98943.75;;;10.64;100.00
21956;BME280;11142;49.930;8.606;2023-03-13T05:28:38;98944.94;;;10.60;100.00
21956;BME280;11142;49.930;8.606;2023-03-13T05:31:23;98933.97;;;10.68;100.00
21956;BME280;11142;49.930;8.606;2023-03-13T05:34:13;98930.47;;;10.78;100.00
21956;BME280;11142;49.930;8.606;2023-03-13T05:37:07;98935.38;;;10.72;100.00
21956;BME280;11142;49.930;8.606;2023-03-13T05:39:50;98931.47;;;10.66;100.00
21956;BME280;11142;49.930;8.606;2023-03-13T05:42:39;98904.22;;;10.72;100.00
21956;BME280;11142;49.930;8.606;2023-03-13T05:45:25;98909.84;;;10.77;100.00
21956;BME280;11142;49.930;8.606;2023-03-13T05:48:09;98923.97;;;10.84;100.00
21956;BME280;11142;49.930;8.606;2023-03-13T05:50:57;98925.91;;;10.91;100.00
21956;BME280;11142;49.930;8.606;2023-03-13T05:53:42;98925.13;;;11.00;100.00
21956;BME280;11142;49.930;8.606;2023-03-13T05:56:26;98939.00;;;11.10;100.00
21956;BME280;11142;49.930;8.606;2023-03-13T05:59:18;98945.25;;;11.29;100.00
21956;BME280;11142;49.930;8.606;2023-03-13T06:02:15;98956.88;;;11.34;100.00
21956;BME280;11142;49.930;8.606;2023-03-13T06:04:45;98954.06;;;11.47;100.00
21956;BME280;11142;49.930;8.606;2023-03-13T06:07:14;98958.53;;;11.35;100.00
21956;BME280;11142;49.930;8.606;2023-03-13T06:09:42;98955.13;;;11.35;100.00
21956;BME280;11142;49.930;8.606;2023-03-13T06:12:12;98948.78;;;11.28;100.00
21956;BME280;11142;49.930;8.606;2023-03-13T06:14:41;98935.59;;;11.40;100.00
21956;BME280;11142;49.930;8.606;2023-03-13T06:17:40;98928.19;;;11.36;100.00
21956;BME280;11142;49.930;8.606;2023-03-13T06:20:10;98921.50;;;11.43;100.00
21956;BME280;11142;49.930;8.606;2023-03-13T06:22:38;98919.75;;;11.43;100.00
21956;BME280;11142;49.930;8.606;2023-03-13T06:25:06;98915.94;;;11.47;100.00
21956;BME280;11142;49.930;8.606;2023-03-13T06:27:35;98918.91;;;11.43;100.00
21956;BME280;11142;49.930;8.606;2023-03-13T06:30:04;98913.34;;;11.47;100.00
21956;BME280;11142;49.930;8.606;2023-03-13T06:32:33;98921.81;;;11.49;100.00
21956;BME280;11142;49.930;8.606;2023-03-13T06:35:01;98932.53;;;11.65;100.00
21956;BME280;11142;49.930;8.606;2023-03-13T06:37:29;98930.59;;;11.67;100.00
21956;BME280;11142;49.930;8.606;2023-03-13T06:39:57;98933.16;;;11.79;100.00
21956;BME280;11142;49.930;8.606;2023-03-13T06:42:25;98937.66;;;11.86;100.00
21956;BME280;11142;49.930;8.606;2023-03-13T06:44:53;98927.41;;;11.85;100.00
21956;BME280;11142;49.930;8.606;2023-03-13T06:47:25;98933.41;;;11.76;100.00
21956;BME280;11142;49.930;8.606;2023-03-13T06:49:53;98929.72;;;11.78;100.00
21956;BME280;11142;49.930;8.606;2023-03-13T06:52:22;98932.06;;;11.91;100.00
21956;BME280;11142;49.930;8.606;2023-03-13T06:55:07;98935.38;;;12.12;100.00
21956;BME280;11142;49.930;8.606;2023-03-13T06:57:36;98928.31;;;12.23;100.00
21956;BME280;11142;49.930;8.606;2023-03-13T07:00:04;98922.56;;;12.30;100.00
21956;BME280;11142;49.930;8.606;2023-03-13T07:02:34;98910.38;;;12.30;100.00
21956;BME280;11142;49.930;8.606;2023-03-13T07:05:03;98907.22;;;12.55;100.00
21956;BME280;11142;49.930;8.606;2023-03-13T07:07:31;98915.66;;;12.76;100.00
21956;BME280;11142;49.930;8.606;2023-03-13T07:09:59;98909.03;;;12.92;100.00
21956;BME280;11142;49.930;8.606;2023-03-13T07:12:28;98909.31;;;12.89;100.00
21956;BME280;11142;49.930;8.606;2023-03-13T07:14:56;98909.31;;;12.89;100.00
21956;BME280;11142;49.930;8.606;2023-03-13T07:17:24;98910.00;;;12.91;100.00
21956;BME280;11142;49.930;8.606;2023-03-13T07:19:56;98912.28;;;13.03;100.00
21956;BME280;11142;49.930;8.606;2023-03-13T07:22:24;98913.56;;;13.09;100.00
21956;BME280;11142;49.930;8.606;2023-03-13T07:24:53;98926.41;;;13.20;100.00
21956;BME280;11142;49.930;8.606;2023-03-13T07:27:21;98930.63;;;13.30;100.00
21956;BME280;11142;49.930;8.606;2023-03-13T07:29:49;98936.91;;;13.38;100.00
21956;BME280;11142;49.930;8.606;2023-03-13T07:32:18;98931.41;;;13.41;100.00
21956;BME280;11142;49.930;8.606;2023-03-13T07:34:46;98948.25;;;13.46;100.00
21956;BME280;11142;49.930;8.606;2023-03-13T07:37:16;98947.88;;;13.41;100.00
21956;BME280;11142;49.930;8.606;2023-03-13T07:39:44;98940.84;;;13.42;100.00
21956;BME280;11142;49.930;8.606;2023-03-13T07:42:12;98931.00;;;13.36;100.00
21956;BME280;11142;49.930;8.606;2023-03-13T07:44:44;98936.75;;;13.39;100.00
21956;BME280;11142;49.930;8.606;2023-03-13T07:47:12;98938.16;;;13.34;100.00
21956;BME280;11142;49.930;8.606;2023-03-13T07:49:40;98936.50;;;13.32;100.00
21956;BME280;11142;49.930;8.606;2023-03-13T07:52:09;98939.25;;;13.41;100.00
21956;BME280;11142;49.930;8.606;2023-03-13T07:54:41;98933.56;;;13.45;100.00
21956;BME280;11142;49.930;8.606;2023-03-13T07:57:09;98940.56;;;13.45;100.00
21956;BME280;11142;49.930;8.606;2023-03-13T07:59:37;98934.16;;;13.39;100.00
21956;BME280;11142;49.930;8.606;2023-03-13T08:02:05;98932.38;;;13.40;100.00
21956;BME280;11142;49.930;8.606;2023-03-13T08:04:34;98923.16;;;13.45;100.00
21956;BME280;11142;49.930;8.606;2023-03-13T08:07:02;98931.03;;;13.63;100.00
21956;BME280;11142;49.930;8.606;2023-03-13T08:09:31;98918.88;;;13.81;100.00
21956;BME280;11142;49.930;8.606;2023-03-13T08:12:00;98924.44;;;13.86;100.00
21956;BME280;11142;49.930;8.606;2023-03-13T08:14:29;98918.38;;;14.13;100.00
21956;BME280;11142;49.930;8.606;2023-03-13T08:16:57;98921.34;;;14.18;100.00
21956;BME280;11142;49.930;8.606;2023-03-13T08:19:25;98926.66;;;14.26;100.00
21956;BME280;11142;49.930;8.606;2023-03-13T08:21:53;98937.47;;;14.31;100.00
21956;BME280;11142;49.930;8.606;2023-03-13T08:24:21;98925.06;;;14.43;100.00
21956;BME280;11142;49.930;8.606;2023-03-13T08:26:49;98925.63;;;14.54;100.00
21956;BME280;11142;49.930;8.606;2023-03-13T08:29:19;98941.06;;;14.65;100.00
21956;BME280;11142;49.930;8.606;2023-03-13T08:31:47;98932.25;;;14.66;100.00
21956;BME280;11142;49.930;8.606;2023-03-13T08:34:18;98935.69;;;14.49;100.00
21956;BME280;11142;49.930;8.606;2023-03-13T08:36:46;98932.28;;;14.49;100.00
21956;BME280;11142;49.930;8.606;2023-03-13T08:39:15;98937.41;;;14.41;100.00
21956;BME280;11142;49.930;8.606;2023-03-13T08:41:44;98940.56;;;14.44;100.00
21956;BME280;11142;49.930;8.606;2023-03-13T08:44:13;98941.75;;;14.50;100.00
21956;BME280;11142;49.930;8.606;2023-03-13T08:46:43;98949.97;;;14.55;100.00
21956;BME280;11142;49.930;8.606;2023-03-13T08:49:11;98941.97;;;14.56;100.00
21956;BME280;11142;49.930;8.606;2023-03-13T08:51:41;98943.38;;;14.68;100.00
21956;BME280;11142;49.930;8.606;2023-03-13T08:54:09;98948.66;;;14.59;100.00
21956;BME280;11142;49.930;8.606;2023-03-13T08:56:37;98953.47;;;14.46;100.00
21956;BME280;11142;49.930;8.606;2023-03-13T08:59:06;98955.03;;;14.56;100.00
21956;BME280;11142;49.930;8.606;2023-03-13T09:01:34;98951.38;;;14.67;100.00
21956;BME280;11142;49.930;8.606;2023-03-13T09:04:04;98949.31;;;14.78;100.00
21956;BME280;11142;49.930;8.606;2023-03-13T09:06:33;98953.88;;;14.76;100.00
21956;BME280;11142;49.930;8.606;2023-03-13T09:09:02;98945.09;;;14.77;100.00
21956;BME280;11142;49.930;8.606;2023-03-13T09:11:31;98952.41;;;14.74;100.00
21956;BME280;11142;49.930;8.606;2023-03-13T09:14:01;98931.44;;;14.66;100.00
21956;BME280;11142;49.930;8.606;2023-03-13T09:16:32;98938.75;;;14.62;100.00
21956;BME280;11142;49.930;8.606;2023-03-13T09:19:00;98935.53;;;14.68;100.00
21956;BME280;11142;49.930;8.606;2023-03-13T09:21:30;98920.97;;;14.83;100.00
21956;BME280;11142;49.930;8.606;2023-03-13T09:23:59;98939.88;;;14.77;100.00
21956;BME280;11142;49.930;8.606;2023-03-13T09:26:28;98926.72;;;14.69;100.00
21956;BME280;11142;49.930;8.606;2023-03-13T09:28:56;98918.88;;;14.87;100.00
21956;BME280;11142;49.930;8.606;2023-03-13T09:31:24;98926.25;;;15.17;100.00
21956;BME280;11142;49.930;8.606;2023-03-13T09:33:52;98909.38;;;15.37;100.00
21956;BME280;11142;49.930;8.606;2023-03-13T09:36:21;98911.19;;;15.45;100.00
21956;BME280;11142;49.930;8.606;2023-03-13T09:38:52;98912.19;;;15.44;100.00
21956;BME280;11142;49.930;8.606;2023-03-13T09:41:23;98902.44;;;15.54;100.00
21956;BME280;11142;49.930;8.606;2023-03-13T09:43:52;98892.81;;;15.29;100.00
21956;BME280;11142;49.930;8.606;2023-03-13T09:46:24;98891.84;;;15.30;100.00
21956;BME280;11142;49.930;8.606;2023-03-13T09:48:53;98891.38;;;15.34;100.00
21956;BME280;11142;49.930;8.606;2023-03-13T09:51:23;98905.38;;;15.25;100.00
21956;BME280;11142;49.930;8.606;2023-03-13T09:53:55;98895.44;;;15.29;100.00
21956;BME280;11142;49.930;8.606;2023-03-13T09:56:27;98889.84;;;15.58;100.00
21956;BME280;11142;49.930;8.606;2023-03-13T09:58:58;98899.22;;;15.76;100.00
21956;BME280;11142;49.930;8.606;2023-03-13T10:01:28;98891.44;;;15.92;100.00
21956;BME280;11142;49.930;8.606;2023-03-13T10:04:01;98889.03;;;16.39;100.00
21956;BME280;11142;49.930;8.606;2023-03-13T10:06:34;98888.06;;;16.81;100.00
21956;BME280;11142;49.930;8.606;2023-03-13T10:09:07;98899.81;;;17.64;100.00
21956;BME280;11142;49.930;8.606;2023-03-13T10:11:43;98902.47;;;18.40;100.00
21956;BME280;11142;49.930;8.606;2023-03-13T10:14:22;98877.53;;;18.59;100.00
21956;BME280;11142;49.930;8.606;2023-03-13T10:16:55;98877.44;;;19.19;100.00
21956;BME280;11142;49.930;8.606;2023-03-13T10:19:26;98888.03;;;18.59;100.00
21956;BME280;11142;49.930;8.606;2023-03-13T10:21:55;98895.59;;;17.86;100.00
21956;BME280;11142;49.930;8.606;2023-03-13T10:24:30;98906.16;;;17.23;100.00
21956;BME280;11142;49.930;8.606;2023-03-13T10:27:00;98903.97;;;16.63;100.00
21956;BME280;11142;49.930;8.606;2023-03-13T10:29:28;98885.59;;;16.47;100.00
21956;BME280;11142;49.930;8.606;2023-03-13T10:31:58;98854.69;;;16.26;100.00
21956;BME280;11142;49.930;8.606;2023-03-13T10:34:27;98873.16;;;16.17;100.00
21956;BME280;11142;49.930;8.606;2023-03-13T10:36:56;98889.53;;;16.11;100.00
21956;BME280;11142;49.930;8.606;2023-03-13T10:39:25;98880.19;;;16.24;100.00
21956;BME280;11142;49.930;8.606;2023-03-13T10:41:57;98885.44;;;16.24;100.00
21956;BME280;11142;49.930;8.606;2023-03-13T10:44:30;98879.69;;;16.21;100.00
21956;BME280;11142;49.930;8.606;2023-03-13T10:46:58;98889.66;;;16.09;100.00
21956;BME280;11142;49.930;8.606;2023-03-13T10:49:28;98881.81;;;16.17;100.00
21956;BME280;11142;49.930;8.606;2023-03-13T10:51:56;98878.06;;;16.44;100.00
21956;BME280;11142;49.930;8.606;2023-03-13T10:54:26;98876.47;;;16.59;100.00
21956;BME280;11142;49.930;8.606;2023-03-13T10:59:41;98866.13;;;16.49;100.00
21956;BME280;11142;49.930;8.606;2023-03-13T11:02:18;98866.97;;;16.66;100.00
21956;BME280;11142;49.930;8.606;2023-03-13T11:04:47;98861.22;;;16.79;100.00
21956;BME280;11142;49.930;8.606;2023-03-13T11:07:20;98861.50;;;16.84;100.00
21956;BME280;11142;49.930;8.606;2023-03-13T11:09:56;98858.91;;;16.84;100.00
21956;BME280;11142;49.930;8.606;2023-03-13T11:12:24;98861.81;;;16.97;100.00
21956;BME280;11142;49.930;8.606;2023-03-13T11:14:58;98848.88;;;17.04;100.00
21956;BME280;11142;49.930;8.606;2023-03-13T11:17:29;98841.91;;;17.27;100.00
21956;BME280;11142;49.930;8.606;2023-03-13T11:20:05;98839.94;;;17.68;100.00
21956;BME280;11142;49.930;8.606;2023-03-13T11:22:40;98835.66;;;17.97;100.00
21956;BME280;11142;49.930;8.606;2023-03-13T11:25:17;98831.88;;;18.60;100.00
21956;BME280;11142;49.930;8.606;2023-03-13T11:27:49;98805.03;;;18.50;100.00
21956;BME280;11142;49.930;8.606;2023-03-13T11:30:29;98811.13;;;18.28;100.00
21956;BME280;11142;49.930;8.606;2023-03-13T11:33:09;98812.41;;;18.46;100.00
21956;BME280;11142;49.930;8.606;2023-03-13T11:35:44;98804.88;;;18.66;100.00
21956;BME280;11142;49.930;8.606;2023-03-13T11:38:17;98805.25;;;18.63;100.00
21956;BME280;11142;49.930;8.606;2023-03-13T11:40:48;98790.09;;;19.24;100.00
21956;BME280;11142;49.930;8.606;2023-03-13T11:43:31;98791.84;;;19.38;97.71
21956;BME280;11142;49.930;8.606;2023-03-13T11:46:12;98772.94;;;19.13;94.74
21956;BME280;11142;49.930;8.606;2023-03-13T11:48:49;98771.34;;;19.12;95.33
21956;BME280;11142;49.930;8.606;2023-03-13T11:51:19;98752.88;;;19.27;94.28
21956;BME280;11142;49.930;8.606;2023-03-13T11:53:57;98755.81;;;19.17;93.94
21956;BME280;11142;49.930;8.606;2023-03-13T11:56:31;98750.25;;;19.27;93.56
21956;BME280;11142;49.930;8.606;2023-03-13T11:59:07;98744.63;;;19.30;94.84
21956;BME280;11142;49.930;8.606;2023-03-13T12:01:48;98739.59;;;19.35;95.48
21956;BME280;11142;49.930;8.606;2023-03-13T12:04:20;98730.91;;;19.91;94.64
21956;BME280;11142;49.930;8.606;2023-03-13T12:06:51;98731.34;;;20.23;91.72
21956;BME280;11142;49.930;8.606;2023-03-13T12:09:24;98733.16;;;19.94;92.93
21956;BME280;11142;49.930;8.606;2023-03-13T12:11:54;98718.00;;;19.75;97.43
21956;BME280;11142;49.930;8.606;2023-03-13T12:14:30;98718.63;;;19.56;96.00
21956;BME280;11142;49.930;8.606;2023-03-13T12:17:03;98714.56;;;19.39;96.93
21956;BME280;11142;49.930;8.606;2023-03-13T12:19:33;98714.84;;;19.44;97.71
21956;BME280;11142;49.930;8.606;2023-03-13T12:22:10;98714.75;;;19.37;97.41
21956;BME280;11142;49.930;8.606;2023-03-13T12:24:41;98704.59;;;19.49;98.74
21956;BME280;11142;49.930;8.606;2023-03-13T12:27:14;98704.53;;;20.40;89.27
21956;BME280;11142;49.930;8.606;2023-03-13T12:29:47;98694.97;;;20.39;86.62
21956;BME280;11142;49.930;8.606;2023-03-13T12:32:18;98687.41;;;20.30;86.86
21956;BME280;11142;49.930;8.606;2023-03-13T12:34:51;98683.13;;;20.56;86.04
21956;BME280;11142;49.930;8.606;2023-03-13T12:37:22;98673.72;;;20.41;85.67
21956;BME280;11142;49.930;8.606;2023-03-13T12:39:52;98679.13;;;20.26;88.72
21956;BME280;11142;49.930;8.606;2023-03-13T12:42:27;98674.84;;;19.97;90.99
21956;BME280;11142;49.930;8.606;2023-03-13T12:44:59;98667.91;;;20.24;89.71
21956;BME280;11142;49.930;8.606;2023-03-13T12:47:30;98661.47;;;21.28;82.39
21956;BME280;11142;49.930;8.606;2023-03-13T12:53:04;98645.88;;;21.33;79.26
21956;BME280;11142;49.930;8.606;2023-03-13T12:55:49;98630.56;;;20.42;84.74
21956;BME280;11142;49.930;8.606;2023-03-13T12:58:25;98626.53;;;19.84;90.32
21956;BME280;11142;49.930;8.606;2023-03-13T13:00:56;98625.38;;;19.65;93.77
21956;BME280;11142;49.930;8.606;2023-03-13T13:03:31;98620.56;;;19.47;96.48
21956;BME280;11142;49.930;8.606;2023-03-13T13:06:06;98605.53;;;19.41;98.02
21956;BME280;11142;49.930;8.606;2023-03-13T13:08:36;98609.31;;;19.39;97.07
21956;BME280;11142;49.930;8.606;2023-03-13T13:13:53;98601.88;;;19.91;93.65
21956;BME280;11142;49.930;8.606;2023-03-13T13:16:21;98589.00;;;20.09;90.98
21956;BME280;11142;49.930;8.606;2023-03-13T13:18:51;98590.03;;;20.49;87.58
21956;BME280;11142;49.930;8.606;2023-03-13T13:21:22;98580.19;;;20.84;83.45
21956;BME280;11142;49.930;8.606;2023-03-13T13:23:52;98572.16;;;21.18;79.49
21956;BME280;11142;49.930;8.606;2023-03-13T13:31:59;98565.34;;;28.87;42.35
21956;BME280;11142;49.930;8.606;2023-03-13T13:37:26;98550.81;;;31.48;35.94